Time;durP1;ratioP1;P1;durP2;ratioP2;P2;SDS_P1;SDS_P2;PMS_P1;PMS_P2;Temp;Humidity;BMP_temperature;BMP_pressure;BME280_temperature;BME280_humidity;BME280_pressure;Samples;Min_cycle;Max_cycle;Signal;HPM_P1;HPM_P2
2021/08/11 00:01:22;;;;;;;6.65;4.60;;;15.50;99.90;;;;;;5027725;28;20226;-82
2021/08/11 00:03:49;;;;;;;6.07;4.43;;;15.50;99.90;;;;;;5025836;28;20590;-83
2021/08/11 00:06:16;;;;;;;7.57;4.60;;;15.50;99.90;;;;;;5006841;28;20199;-82
2021/08/11 00:08:45;;;;;;;6.93;5.60;;;15.50;99.90;;;;;;5007540;28;20276;-82
2021/08/11 00:11:14;;;;;;;6.80;5.38;;;15.50;99.90;;;;;;5007512;28;20218;-81
2021/08/11 00:13:41;;;;;;;8.18;5.22;;;15.50;99.90;;;;;;5007633;28;20199;-82
2021/08/11 00:16:09;;;;;;;6.07;4.78;;;15.50;99.90;;;;;;5007382;28;20207;-81
2021/08/11 00:18:36;;;;;;;6.72;5.13;;;15.50;99.90;;;;;;5025712;28;20249;-83
2021/08/11 00:21:03;;;;;;;7.00;4.95;;;15.50;99.90;;;;;;5012348;28;20631;-83
2021/08/11 00:23:30;;;;;;;8.63;5.05;;;15.40;99.90;;;;;;5005988;28;20670;-80
2021/08/11 00:25:57;;;;;;;7.10;5.38;;;15.40;99.90;;;;;;5008233;28;20215;-80
2021/08/11 00:28:26;;;;;;;6.22;4.90;;;15.40;99.90;;;;;;5013006;28;20192;-81
2021/08/11 00:30:54;;;;;;;7.43;5.03;;;15.40;99.90;;;;;;5013553;28;20199;-81
2021/08/11 00:33:21;;;;;;;6.00;4.90;;;15.40;99.90;;;;;;5029455;28;20245;-82
2021/08/11 00:35:49;;;;;;;6.97;5.35;;;15.40;99.90;;;;;;5028771;28;20199;-82
2021/08/11 00:38:15;;;;;;;5.72;5.15;;;15.40;99.90;;;;;;5025822;28;20203;-81
2021/08/11 00:40:42;;;;;;;9.52;5.20;;;15.40;99.90;;;;;;5024712;28;20210;-81
2021/08/11 00:43:11;;;;;;;7.97;5.45;;;15.40;99.90;;;;;;5025895;28;20548;-82
2021/08/11 00:45:40;;;;;;;6.90;5.35;;;15.40;99.90;;;;;;5024676;28;20615;-80
2021/08/11 00:48:08;;;;;;;8.52;5.57;;;15.40;99.90;;;;;;5024343;28;20590;-80
2021/08/11 00:50:37;;;;;;;8.75;5.88;;;15.40;99.90;;;;;;5036475;28;20195;-81
2021/08/11 00:53:05;;;;;;;9.87;5.93;;;15.40;99.90;;;;;;5038431;28;20210;-80
2021/08/11 00:55:35;;;;;;;6.72;5.35;;;15.40;99.90;;;;;;5030029;28;20202;-80
2021/08/11 00:58:05;;;;;;;8.50;5.95;;;15.40;99.90;;;;;;5010190;28;20210;-81
2021/08/11 01:00:33;;;;;;;6.85;5.70;;;15.40;99.90;;;;;;5009181;28;20203;-82
2021/08/11 01:03:04;;;;;;;10.70;6.47;;;15.40;99.90;;;;;;5026013;28;20373;-81
2021/08/11 01:05:32;;;;;;;8.57;6.30;;;15.30;99.90;;;;;;5030042;28;20623;-82
2021/08/11 01:07:58;;;;;;;9.05;5.65;;;15.30;99.90;;;;;;5028818;28;20195;-80
2021/08/11 01:10:26;;;;;;;8.18;5.47;;;15.30;99.90;;;;;;5025861;28;20203;-81
2021/08/11 01:12:53;;;;;;;7.38;6.43;;;15.30;99.90;;;;;;5009044;28;20199;-80
2021/08/11 01:15:20;;;;;;;10.07;6.25;;;15.30;99.90;;;;;;5016367;28;20198;-82
2021/08/11 01:17:47;;;;;;;11.00;6.88;;;15.30;99.90;;;;;;5028931;28;20226;-81
2021/08/11 01:20:15;;;;;;;8.77;6.10;;;15.30;99.90;;;;;;5027871;28;20610;-80
2021/08/11 01:22:46;;;;;;;6.95;5.93;;;15.30;99.90;;;;;;5029372;28;20253;-79
2021/08/11 01:25:19;;;;;;;6.72;5.50;;;15.30;99.90;;;;;;5019834;28;20219;-82
2021/08/11 01:28:19;;;;;;;7.28;5.70;;;15.20;99.90;;;;;;5012753;28;20222;-81
2021/08/11 01:30:52;;;;;;;9.20;7.17;;;15.20;99.90;;;;;;5029409;28;20201;-79
2021/08/11 01:33:38;;;;;;;10.63;6.43;;;15.20;99.90;;;;;;5027662;28;20242;-83
2021/08/11 01:36:10;;;;;;;12.87;7.07;;;15.10;99.90;;;;;;5028429;28;20214;-81
2021/08/11 01:38:42;;;;;;;9.37;6.60;;;15.10;99.90;;;;;;5027645;28;20210;-81
2021/08/11 01:41:12;;;;;;;9.33;6.63;;;15.10;99.90;;;;;;5029518;28;20696;-82
2021/08/11 01:43:44;;;;;;;9.00;6.40;;;15.10;99.90;;;;;;5028667;28;20190;-81
2021/08/11 01:46:13;;;;;;;8.07;6.53;;;15.10;99.90;;;;;;5027887;28;20206;-79
2021/08/11 01:48:43;;;;;;;12.30;8.90;;;15.10;99.90;;;;;;5028105;28;20210;-79
2021/08/11 01:51:11;;;;;;;11.40;8.77;;;15.10;99.90;;;;;;5011061;28;20226;-82
2021/08/11 01:53:38;;;;;;;11.23;8.23;;;15.00;99.90;;;;;;5008870;28;20207;-82
2021/08/11 01:56:05;;;;;;;9.77;8.18;;;15.00;99.90;;;;;;5009340;28;20195;-82
2021/08/11 01:58:32;;;;;;;7.87;6.93;;;15.00;99.90;;;;;;5027714;28;20219;-80
2021/08/11 02:01:01;;;;;;;10.43;8.20;;;15.00;99.90;;;;;;5026452;28;20587;-80
2021/08/11 02:03:28;;;;;;;9.90;8.27;;;15.00;99.90;;;;;;5014676;28;20207;-79
2021/08/11 02:05:57;;;;;;;9.60;7.93;;;15.00;99.90;;;;;;5008209;28;20199;-79
2021/08/11 02:08:25;;;;;;;9.33;7.43;;;15.00;99.90;;;;;;5006900;28;20286;-79
2021/08/11 02:10:55;;;;;;;10.27;8.53;;;14.90;99.90;;;;;;5006809;28;20210;-79
2021/08/11 02:13:22;;;;;;;11.13;7.80;;;14.90;99.90;;;;;;5010397;28;20623;-81
2021/08/11 02:15:49;;;;;;;10.97;8.50;;;14.90;99.90;;;;;;5028673;28;20214;-80
2021/08/11 02:18:16;;;;;;;10.93;8.33;;;14.90;99.90;;;;;;5028016;28;20670;-79
2021/08/11 02:20:44;;;;;;;11.23;8.70;;;14.90;99.90;;;;;;5027587;28;20518;-81
2021/08/11 02:23:12;;;;;;;13.97;10.20;;;14.90;99.90;;;;;;5027261;28;20234;-80
2021/08/11 02:25:46;;;;;;;10.60;8.93;;;14.90;99.90;;;;;;5026979;28;20594;-81
2021/08/11 02:28:20;;;;;;;11.43;9.33;;;14.90;99.90;;;;;;5024628;28;20308;-81
2021/08/11 02:30:59;;;;;;;9.95;8.93;;;14.90;99.90;;;;;;5008747;28;20784;-82
2021/08/11 02:33:30;;;;;;;13.83;10.17;;;14.90;99.90;;;;;;5008256;28;20246;-81
2021/08/11 02:36:02;;;;;;;14.48;11.82;;;14.90;99.90;;;;;;5026253;28;20207;-82
2021/08/11 02:38:35;;;;;;;15.88;11.93;;;14.90;99.90;;;;;;5027200;28;20604;-82
2021/08/11 02:41:08;;;;;;;16.63;12.23;;;14.90;99.90;;;;;;5027896;28;20203;-80
2021/08/11 02:43:37;;;;;;;17.73;12.80;;;15.00;99.90;;;;;;5027616;28;20621;-80
2021/08/11 02:46:07;;;;;;;18.57;13.10;;;15.00;99.90;;;;;;5026064;28;20256;-79
2021/08/11 02:48:36;;;;;;;13.97;12.40;;;15.00;99.90;;;;;;5027963;28;20222;-81
2021/08/11 02:51:05;;;;;;;16.77;13.23;;;15.10;99.90;;;;;;5026730;28;20202;-79
2021/08/11 02:53:35;;;;;;;17.43;12.60;;;15.10;99.90;;;;;;5025349;28;20222;-80
2021/08/11 02:56:02;;;;;;;22.50;15.23;;;15.10;99.90;;;;;;5026021;28;20629;-79
2021/08/11 02:58:31;;;;;;;16.40;12.37;;;15.10;99.90;;;;;;5026621;28;20599;-82
2021/08/11 03:00:59;;;;;;;18.60;13.90;;;15.10;99.90;;;;;;5017983;28;20203;-81
2021/08/11 03:03:26;;;;;;;19.27;13.40;;;15.10;99.90;;;;;;5006903;28;20231;-80
2021/08/11 03:05:53;;;;;;;17.10;12.67;;;15.10;99.90;;;;;;5006852;28;20568;-80
2021/08/11 03:08:21;;;;;;;20.60;14.53;;;15.10;99.90;;;;;;5006398;28;20203;-80
2021/08/11 03:10:49;;;;;;;16.03;13.80;;;15.10;99.90;;;;;;5006921;28;20210;-79
2021/08/11 03:13:16;;;;;;;17.67;14.17;;;15.10;99.90;;;;;;5016004;28;20530;-79
2021/08/11 03:15:44;;;;;;;18.53;13.47;;;15.10;99.90;;;;;;5025393;28;20198;-79
2021/08/11 03:18:11;;;;;;;17.93;12.97;;;15.10;99.90;;;;;;5025887;28;20219;-79
2021/08/11 03:20:39;;;;;;;14.57;11.93;;;15.00;99.90;;;;;;5020456;28;20325;-79
2021/08/11 03:23:06;;;;;;;17.90;12.67;;;15.00;99.90;;;;;;5005605;28;20227;-78
2021/08/11 03:25:33;;;;;;;17.57;13.10;;;15.00;99.90;;;;;;5020490;28;20202;-79
2021/08/11 03:28:01;;;;;;;15.83;12.63;;;15.00;99.90;;;;;;5027146;28;20206;-80
2021/08/11 03:30:28;;;;;;;14.63;12.07;;;15.00;99.90;;;;;;5028570;28;20213;-80
2021/08/11 03:32:55;;;;;;;14.50;11.40;;;15.00;99.90;;;;;;5028118;28;20198;-81
2021/08/11 03:35:22;;;;;;;15.83;13.10;;;14.90;99.90;;;;;;5010512;28;20222;-80
2021/08/11 03:37:50;;;;;;;19.37;14.13;;;15.00;99.90;;;;;;5007445;28;20215;-82
2021/08/11 03:40:17;;;;;;;19.07;13.37;;;15.00;99.90;;;;;;5014224;28;20202;-82
2021/08/11 03:42:43;;;;;;;16.00;12.87;;;15.00;99.90;;;;;;5025136;28;20634;-82
2021/08/11 03:45:12;;;;;;;16.07;13.53;;;15.00;99.90;;;;;;5024833;28;20202;-80
2021/08/11 03:47:42;;;;;;;16.53;12.50;;;15.00;99.90;;;;;;5024543;28;20221;-83
2021/08/11 03:50:10;;;;;;;16.43;13.27;;;14.90;99.90;;;;;;5024461;28;20203;-80
2021/08/11 03:52:37;;;;;;;13.33;10.90;;;14.90;99.90;;;;;;5025239;28;20202;-80
2021/08/11 03:55:04;;;;;;;17.90;15.00;;;14.90;99.90;;;;;;5024156;28;20596;-79
2021/08/11 03:57:31;;;;;;;15.00;11.87;;;14.90;99.90;;;;;;5025274;28;20604;-78
2021/08/11 03:59:58;;;;;;;18.63;14.03;;;14.90;99.90;;;;;;5025402;28;20293;-81
2021/08/11 04:02:26;;;;;;;13.60;12.10;;;14.80;99.90;;;;;;5025017;28;20932;-79
2021/08/11 04:04:53;;;;;;;16.77;12.50;;;14.80;99.90;;;;;;5025316;28;20215;-80
2021/08/11 04:07:20;;;;;;;15.60;12.25;;;14.80;99.90;;;;;;5025861;28;20214;-80
2021/08/11 04:09:46;;;;;;;16.70;12.03;;;14.80;99.90;;;;;;5026550;28;20201;-82
2021/08/11 04:12:13;;;;;;;16.57;12.47;;;14.80;99.90;;;;;;5024114;28;20213;-77
2021/08/11 04:14:40;;;;;;;14.53;11.87;;;14.80;99.90;;;;;;5026337;28;20202;-79
2021/08/11 04:17:08;;;;;;;16.83;10.90;;;14.80;99.90;;;;;;5023547;28;20230;-80
2021/08/11 04:19:36;;;;;;;11.47;10.27;;;14.80;99.90;;;;;;5024965;28;21039;-80
2021/08/11 04:22:03;;;;;;;15.70;11.17;;;14.80;99.90;;;;;;5024539;28;20214;-83
2021/08/11 04:24:30;;;;;;;15.77;12.80;;;14.80;99.90;;;;;;5025946;28;20901;-82
2021/08/11 04:26:57;;;;;;;17.87;11.97;;;14.80;99.90;;;;;;5026547;28;20198;-79
2021/08/11 04:29:24;;;;;;;17.47;12.00;;;14.80;99.90;;;;;;5028757;28;20203;-79
2021/08/11 04:31:50;;;;;;;14.73;11.10;;;14.80;99.90;;;;;;5011107;28;20214;-79
2021/08/11 04:34:17;;;;;;;15.23;11.52;;;14.80;99.90;;;;;;5007764;28;20542;-80
2021/08/11 04:36:45;;;;;;;15.67;11.63;;;14.80;99.90;;;;;;5009341;28;20480;-79
2021/08/11 04:39:12;;;;;;;15.87;11.93;;;14.80;99.90;;;;;;5007586;28;20203;-81
2021/08/11 04:41:39;;;;;;;13.60;11.17;;;14.80;99.90;;;;;;5010472;28;20196;-82
2021/08/11 04:44:10;;;;;;;16.73;12.17;;;14.80;99.90;;;;;;5040837;28;20257;-82
2021/08/11 04:46:37;;;;;;;17.93;11.97;;;14.90;99.90;;;;;;5036385;28;20202;-80
2021/08/11 04:49:04;;;;;;;19.07;13.50;;;14.90;99.90;;;;;;5032542;28;20218;-82
2021/08/11 04:51:31;;;;;;;23.40;13.43;;;14.90;99.90;;;;;;5032575;28;20662;-81
2021/08/11 04:53:59;;;;;;;19.83;12.30;;;14.90;99.90;;;;;;5033226;28;20206;-80
2021/08/11 04:56:25;;;;;;;20.57;13.33;;;15.00;99.90;;;;;;5028096;28;20218;-80
2021/08/11 04:58:52;;;;;;;15.23;11.80;;;15.00;99.90;;;;;;5010093;28;20210;-83
2021/08/11 05:01:19;;;;;;;15.00;11.77;;;15.00;99.90;;;;;;5011632;28;20207;-82
2021/08/11 05:03:47;;;;;;;16.23;11.75;;;15.00;99.90;;;;;;5010900;28;20226;-81
2021/08/11 05:06:14;;;;;;;23.38;13.93;;;15.00;99.90;;;;;;5009763;28;20599;-81
2021/08/11 05:08:40;;;;;;;15.43;12.97;;;15.10;99.90;;;;;;5011164;28;20203;-82
2021/08/11 05:11:09;;;;;;;17.77;12.32;;;15.10;99.90;;;;;;5029931;28;20194;-80
2021/08/11 05:13:35;;;;;;;20.00;13.13;;;15.20;99.90;;;;;;5028620;28;20210;-82
2021/08/11 05:16:02;;;;;;;15.80;12.07;;;15.20;99.90;;;;;;5030694;28;20202;-82
2021/08/11 05:18:29;;;;;;;18.13;12.37;;;15.20;99.90;;;;;;5010585;28;20223;-82
2021/08/11 05:20:56;;;;;;;19.57;12.50;;;15.30;99.90;;;;;;5010614;28;20215;-85
2021/08/11 05:23:24;;;;;;;18.80;11.40;;;15.30;99.90;;;;;;5011407;28;20226;-83
2021/08/11 05:25:51;;;;;;;18.23;12.85;;;15.40;99.90;;;;;;5017202;28;20264;-81
2021/08/11 05:28:19;;;;;;;17.92;11.80;;;15.40;99.90;;;;;;5030823;28;20202;-83
2021/08/11 05:30:46;;;;;;;17.33;11.02;;;15.40;99.90;;;;;;5029911;28;20542;-82
2021/08/11 05:33:13;;;;;;;20.10;14.25;;;15.50;99.90;;;;;;5009404;28;20235;-84
2021/08/11 05:35:39;;;;;;;16.42;11.38;;;15.50;99.90;;;;;;5008987;28;20286;-79
2021/08/11 05:38:07;;;;;;;17.10;11.55;;;15.60;99.90;;;;;;5027783;28;20214;-79
2021/08/11 05:40:33;;;;;;;22.52;11.95;;;15.60;99.90;;;;;;5030422;28;20776;-82
2021/08/11 05:43:00;;;;;;;20.20;12.10;;;15.70;99.90;;;;;;5028081;28;20226;-82
2021/08/11 05:45:28;;;;;;;18.98;10.80;;;15.70;99.90;;;;;;5015843;28;20207;-81
2021/08/11 05:47:55;;;;;;;15.20;10.15;;;15.70;99.90;;;;;;5009057;28;20583;-80
2021/08/11 05:50:22;;;;;;;11.50;9.32;;;15.80;99.90;;;;;;5020123;28;20214;-80
2021/08/11 05:52:49;;;;;;;12.77;10.48;;;15.80;99.90;;;;;;5031614;28;20219;-84
2021/08/11 05:55:15;;;;;;;19.73;11.45;;;15.90;99.90;;;;;;5029576;28;20198;-84
2021/08/11 05:57:42;;;;;;;17.52;10.48;;;16.10;99.90;;;;;;5018125;28;20210;-83
2021/08/11 06:00:11;;;;;;;20.05;12.25;;;16.20;99.90;;;;;;5008691;28;20207;-85
2021/08/11 06:02:40;;;;;;;17.17;10.63;;;16.40;99.90;;;;;;5009049;28;20238;-85
2021/08/11 06:05:09;;;;;;;16.42;11.90;;;16.50;99.90;;;;;;5007513;28;20207;-80
2021/08/11 06:07:36;;;;;;;19.02;11.95;;;16.70;99.90;;;;;;5008661;28;20262;-84
2021/08/11 06:10:04;;;;;;;15.57;11.60;;;16.80;99.90;;;;;;5023621;28;20255;-83
2021/08/11 06:12:31;;;;;;;11.35;9.70;;;16.90;99.90;;;;;;5020003;28;20924;-82
2021/08/11 06:14:57;;;;;;;20.92;13.38;;;17.10;99.90;;;;;;5027288;28;20206;-81
2021/08/11 06:17:24;;;;;;;16.13;11.57;;;17.30;99.90;;;;;;5027602;28;20222;-83
2021/08/11 06:19:53;;;;;;;22.17;12.60;;;17.40;99.90;;;;;;5027660;28;20210;-83
2021/08/11 06:22:20;;;;;;;21.30;11.35;;;17.50;99.90;;;;;;5016607;28;20215;-82
2021/08/11 06:24:46;;;;;;;18.98;11.13;;;17.60;99.90;;;;;;5015906;28;20239;-82
2021/08/11 06:27:13;;;;;;;14.90;11.25;;;17.70;99.90;;;;;;5008333;28;20211;-83
2021/08/11 06:29:40;;;;;;;14.75;10.40;;;17.80;99.90;;;;;;5008037;28;20203;-82
2021/08/11 06:32:07;;;;;;;16.08;10.10;;;17.90;99.90;;;;;;5007333;28;20210;-81
2021/08/11 06:34:34;;;;;;;16.00;11.02;;;18.00;99.90;;;;;;5007490;28;20556;-81
2021/08/11 06:37:03;;;;;;;17.63;10.88;;;18.10;99.90;;;;;;5007889;28;20211;-81
2021/08/11 06:39:29;;;;;;;18.50;11.90;;;18.10;99.90;;;;;;5006600;28;20604;-79
2021/08/11 06:41:56;;;;;;;14.88;9.93;;;18.10;99.90;;;;;;5010614;28;20202;-82
2021/08/11 06:44:23;;;;;;;17.30;10.30;;;18.10;99.90;;;;;;5026234;28;20226;-82
2021/08/11 06:46:51;;;;;;;15.02;9.02;;;18.10;99.90;;;;;;5027776;28;20204;-83
2021/08/11 06:49:18;;;;;;;20.27;11.63;;;18.20;99.90;;;;;;5025076;28;20211;-83
2021/08/11 06:51:44;;;;;;;18.48;10.82;;;18.20;99.90;;;;;;5027236;28;20218;-83
2021/08/11 06:54:14;;;;;;;14.55;10.27;;;18.30;99.90;;;;;;5026425;28;20499;-84
2021/08/11 06:56:41;;;;;;;15.63;10.23;;;18.40;99.90;;;;;;5026482;28;20861;-82
2021/08/11 06:59:08;;;;;;;17.88;10.65;;;18.50;99.90;;;;;;5026135;28;20214;-80
2021/08/11 07:01:35;;;;;;;14.52;10.63;;;18.60;99.90;;;;;;5027142;28;20537;-82
2021/08/11 07:08:03;;;;;;;23.20;13.43;;;18.70;99.90;;;;;;4784459;29;20200;-80
2021/08/11 07:10:31;;;;;;;18.80;12.30;;;18.90;99.90;;;;;;4891369;29;20217;-79
2021/08/11 07:12:58;;;;;;;19.80;11.98;;;18.90;99.90;;;;;;5008226;28;20594;-79
2021/08/11 07:15:25;;;;;;;19.40;12.95;;;19.00;99.90;;;;;;5025657;28;20506;-81
2021/08/11 07:17:54;;;;;;;20.40;13.27;;;19.00;99.90;;;;;;5014132;28;20223;-81
2021/08/11 07:20:21;;;;;;;17.52;11.80;;;19.00;99.90;;;;;;5005343;28;20207;-81
2021/08/11 07:22:48;;;;;;;18.58;11.77;;;19.00;99.90;;;;;;5011791;28;20217;-81
2021/08/11 07:25:15;;;;;;;20.90;13.75;;;19.10;99.90;;;;;;5018877;28;20296;-83
2021/08/11 07:27:43;;;;;;;13.10;10.70;;;19.20;99.90;;;;;;5025087;28;20464;-82
2021/08/11 07:30:11;;;;;;;21.60;12.18;;;19.30;99.90;;;;;;5026063;28;20218;-81
2021/08/11 07:32:38;;;;;;;16.70;10.10;;;19.40;99.90;;;;;;5027114;28;20211;-80
2021/08/11 07:35:06;;;;;;;23.00;11.68;;;19.40;99.90;;;;;;5024838;28;20720;-79
2021/08/11 07:37:33;;;;;;;15.98;9.75;;;19.70;99.90;;;;;;5025817;28;20198;-81
2021/08/11 07:39:59;;;;;;;18.42;11.63;;;19.90;99.90;;;;;;5025329;28;20198;-86
2021/08/11 07:42:26;;;;;;;20.45;12.48;;;20.00;99.90;;;;;;5025203;28;20214;-81
2021/08/11 07:44:54;;;;;;;18.52;10.65;;;20.10;99.90;;;;;;5024524;28;20231;-79
2021/08/11 07:47:21;;;;;;;18.70;10.98;;;20.20;99.90;;;;;;5025604;28;20626;-80
2021/08/11 07:49:48;;;;;;;15.32;10.57;;;20.40;99.90;;;;;;5025290;28;20207;-81
2021/08/11 07:52:15;;;;;;;14.80;10.27;;;20.50;99.90;;;;;;5019950;28;20651;-79
2021/08/11 07:54:41;;;;;;;17.52;10.35;;;20.80;99.90;;;;;;5006969;28;20210;-79
2021/08/11 07:57:08;;;;;;;11.73;8.75;;;21.10;99.90;;;;;;5007754;28;20208;-79
2021/08/11 07:59:35;;;;;;;14.90;10.48;;;21.30;99.90;;;;;;5025269;28;20199;-80
2021/08/11 08:02:08;;;;;;;18.30;9.85;;;21.40;99.90;;;;;;5028551;28;20221;-80
2021/08/11 08:04:35;;;;;;;11.48;7.75;;;21.50;99.90;;;;;;5029837;28;20222;-79
2021/08/11 08:07:02;;;;;;;10.75;8.05;;;21.70;99.90;;;;;;5029784;28;20207;-80
2021/08/11 08:09:28;;;;;;;13.73;9.55;;;21.80;99.90;;;;;;5029144;28;20543;-81
2021/08/11 08:11:55;;;;;;;16.15;9.52;;;21.90;99.90;;;;;;5010841;28;20752;-81
2021/08/11 08:14:22;;;;;;;12.93;9.73;;;22.10;99.90;;;;;;5009979;28;20203;-81
2021/08/11 08:16:49;;;;;;;13.65;9.00;;;22.50;99.90;;;;;;5010027;28;20222;-83
2021/08/11 08:19:17;;;;;;;15.30;9.57;;;22.80;99.90;;;;;;5011062;28;20623;-81
2021/08/11 08:21:44;;;;;;;14.48;8.85;;;23.10;99.90;;;;;;5012128;28;20195;-82
2021/08/11 08:24:11;;;;;;;14.75;9.63;;;23.40;99.90;;;;;;5009636;28;20245;-80
2021/08/11 08:26:38;;;;;;;13.90;9.75;;;23.60;99.90;;;;;;5010697;28;20215;-80
2021/08/11 08:29:05;;;;;;;12.48;9.05;;;23.60;99.90;;;;;;5010282;28;20211;-81
2021/08/11 08:31:32;;;;;;;14.52;8.85;;;23.50;99.90;;;;;;5009313;28;20604;-81
2021/08/11 08:33:59;;;;;;;13.73;8.80;;;23.30;99.90;;;;;;5027115;28;20245;-82
2021/08/11 08:36:27;;;;;;;15.32;8.20;;;23.30;99.90;;;;;;5029657;28;20203;-81
2021/08/11 08:38:54;;;;;;;11.88;7.55;;;23.60;99.90;;;;;;5028810;28;20214;-81
2021/08/11 08:41:21;;;;;;;11.57;8.65;;;23.70;99.90;;;;;;5029460;28;20194;-81
2021/08/11 08:43:47;;;;;;;11.88;8.02;;;23.90;99.90;;;;;;5015585;28;20223;-80
2021/08/11 08:46:16;;;;;;;12.52;7.93;;;24.00;99.90;;;;;;5011166;28;20195;-81
2021/08/11 08:48:44;;;;;;;13.82;8.32;;;24.30;99.90;;;;;;5010499;28;20309;-84
2021/08/11 08:51:12;;;;;;;13.40;8.15;;;24.50;99.90;;;;;;5010893;28;20207;-81
2021/08/11 08:53:42;;;;;;;13.05;8.55;;;24.50;99.90;;;;;;5009464;28;20211;-79
2021/08/11 08:56:09;;;;;;;13.48;9.85;;;24.70;99.90;;;;;;5011412;28;20199;-84
2021/08/11 08:58:38;;;;;;;13.20;9.02;;;24.50;99.90;;;;;;5010590;28;20214;-80
2021/08/11 09:01:05;;;;;;;12.45;8.27;;;24.50;99.90;;;;;;5010974;28;20204;-80
2021/08/11 09:03:32;;;;;;;13.25;8.20;;;24.50;99.90;;;;;;5007760;28;20205;-80
2021/08/11 09:05:59;;;;;;;14.02;8.43;;;24.80;99.90;;;;;;5018422;28;20210;-79
2021/08/11 09:08:26;;;;;;;11.23;7.47;;;25.00;99.90;;;;;;5027907;28;20203;-80
2021/08/11 09:10:54;;;;;;;12.13;8.45;;;25.10;99.90;;;;;;5024794;28;20215;-80
2021/08/11 09:13:22;;;;;;;16.00;9.35;;;25.20;99.90;;;;;;5024677;28;20218;-82
2021/08/11 09:15:51;;;;;;;13.67;8.03;;;25.30;99.90;;;;;;5027462;28;20519;-82
2021/08/11 09:18:19;;;;;;;16.58;9.98;;;25.30;99.90;;;;;;5015896;28;20642;-81
2021/08/11 09:20:47;;;;;;;11.77;8.48;;;25.10;99.90;;;;;;5007938;28;20199;-80
2021/08/11 09:23:15;;;;;;;15.23;10.55;;;24.90;99.90;;;;;;5008532;28;20491;-80
2021/08/11 09:26:00;;;;;;;14.95;10.77;;;24.70;99.90;;;;;;5010879;28;20223;-81
2021/08/11 09:28:28;;;;;;;17.98;11.05;;;24.60;99.90;;;;;;5027928;28;20206;-81
2021/08/11 09:30:55;;;;;;;12.88;10.18;;;24.70;99.90;;;;;;5027943;28;20207;-79
2021/08/11 09:33:25;;;;;;;18.48;10.77;;;24.80;99.90;;;;;;5025846;28;20230;-81
2021/08/11 09:35:53;;;;;;;14.10;9.95;;;24.70;99.90;;;;;;5029031;28;20530;-80
2021/08/11 09:38:20;;;;;;;15.32;10.15;;;24.80;99.90;;;;;;5030066;28;20203;-81
2021/08/11 09:40:48;;;;;;;14.18;10.02;;;25.00;99.90;;;;;;5028099;28;20975;-81
2021/08/11 09:43:18;;;;;;;19.60;11.38;;;25.10;99.90;;;;;;5028161;28;20253;-83
2021/08/11 09:45:47;;;;;;;15.35;9.27;;;25.30;99.90;;;;;;5028290;28;20233;-81
2021/08/11 09:48:15;;;;;;;12.98;9.10;;;25.50;99.90;;;;;;5028825;28;20301;-82
2021/08/11 09:50:47;;;;;;;12.85;7.55;;;25.60;99.90;;;;;;5029408;28;20215;-81
2021/08/11 09:53:16;;;;;;;12.43;7.60;;;25.80;99.90;;;;;;5028474;28;20203;-82
2021/08/11 09:56:12;;;;;;;12.80;7.68;;;25.90;99.90;;;;;;5028016;28;20203;-83
2021/08/11 09:58:41;;;;;;;12.40;8.80;;;26.20;99.90;;;;;;5029604;28;20207;-84
2021/08/11 10:01:25;;;;;;;15.38;9.60;;;26.30;99.90;;;;;;5030261;28;20206;-82
2021/08/11 10:03:57;;;;;;;13.90;7.72;;;26.20;99.90;;;;;;5036154;28;20225;-84
2021/08/11 10:06:26;;;;;;;15.05;8.73;;;26.10;99.90;;;;;;5055068;22;20234;-84
2021/08/11 10:08:53;;;;;;;13.32;9.20;;;26.20;99.90;;;;;;5047477;28;20260;-83
2021/08/11 10:11:35;;;;;;;17.67;9.18;;;26.20;99.90;;;;;;5032301;28;20218;-84
2021/08/11 10:14:05;;;;;;;12.73;8.30;;;26.10;99.90;;;;;;5029171;28;20591;-84
2021/08/11 10:16:34;;;;;;;15.63;9.20;;;26.10;99.90;;;;;;5032347;28;20268;-84
2021/08/11 10:19:02;;;;;;;13.82;9.70;;;26.10;99.90;;;;;;5051848;28;20205;-85
2021/08/11 10:21:30;;;;;;;28.42;20.50;;;26.10;99.90;;;;;;5050947;28;20316;-83
2021/08/11 10:23:57;;;;;;;684.60;610.38;;;26.00;99.90;;;;;;5063320;28;20236;-85
2021/08/11 10:26:24;;;;;;;119.00;83.00;;;26.00;99.90;;;;;;5054896;28;20209;-82
2021/08/11 10:28:51;;;;;;;25.52;15.25;;;25.90;99.90;;;;;;5057779;28;20259;-86
2021/08/11 10:31:20;;;;;;;16.20;10.45;;;26.00;99.90;;;;;;5069584;28;20193;-83
2021/08/11 10:33:50;;;;;;;11.07;9.10;;;26.00;99.90;;;;;;5068888;28;20292;-83
2021/08/11 10:36:17;;;;;;;13.43;8.90;;;26.00;99.90;;;;;;5051854;28;20248;-85
2021/08/11 10:38:45;;;;;;;16.02;11.20;;;26.10;99.90;;;;;;5051673;28;20198;-83
2021/08/11 10:41:13;;;;;;;11.98;9.40;;;26.10;99.90;;;;;;5051897;28;20205;-86
2021/08/11 10:43:40;;;;;;;10.60;8.43;;;26.10;99.90;;;;;;5068622;28;20205;-85
2021/08/11 10:46:11;;;;;;;12.38;10.07;;;26.10;99.90;;;;;;5069044;28;20512;-87
2021/08/11 10:48:39;;;;;;;17.92;9.95;;;26.10;99.90;;;;;;5061032;28;20213;-84
2021/08/11 10:51:07;;;;;;;12.50;10.20;;;26.20;99.90;;;;;;5050989;28;20609;-86
2021/08/11 10:53:34;;;;;;;13.13;9.90;;;26.30;99.90;;;;;;5064917;28;20551;-85
2021/08/11 10:56:01;;;;;;;14.95;10.02;;;26.30;99.90;;;;;;5070600;28;20198;-85
2021/08/11 10:58:39;;;;;;;15.85;10.23;;;26.20;99.90;;;;;;5072182;28;20205;-85
2021/08/11 11:01:31;;;;;;;16.17;10.43;;;26.30;99.90;;;;;;5079935;28;20197;-84
2021/08/11 11:03:59;;;;;;;14.18;9.60;;;26.30;99.90;;;;;;5084045;28;20492;-86
2021/08/11 11:07:14;;;;;;;13.63;9.52;;;26.30;99.90;;;;;;5075127;28;20225;-82
2021/08/11 11:09:41;;;;;;;14.48;9.70;;;26.40;99.90;;;;;;5073036;28;20221;-84
2021/08/11 11:12:39;;;;;;;13.38;10.85;;;26.40;99.90;;;;;;5067580;28;20204;-85
2021/08/11 11:15:06;;;;;;;15.70;9.65;;;26.50;99.90;;;;;;5060960;28;20198;-85
2021/08/11 11:17:35;;;;;;;16.95;9.52;;;26.60;99.90;;;;;;5047226;28;20213;-84
2021/08/11 11:20:29;;;;;;;11.90;8.68;;;26.70;99.90;;;;;;5044674;28;20621;-83
2021/08/11 11:23:02;;;;;;;12.55;9.15;;;26.80;99.90;;;;;;5048612;28;20225;-84
2021/08/11 11:26:00;;;;;;;11.48;9.15;;;26.70;99.90;;;;;;5049946;28;20235;-85
2021/08/11 11:29:02;;;;;;;14.75;10.70;;;26.90;99.90;;;;;;5038837;28;20204;-83
2021/08/11 11:31:37;;;;;;;12.50;9.70;;;26.90;99.90;;;;;;5049665;28;20220;-84
2021/08/11 11:34:30;;;;;;;13.98;9.40;;;26.90;99.90;;;;;;5048434;28;20190;-85
2021/08/11 11:37:28;;;;;;;15.00;10.25;;;26.90;99.90;;;;;;5048319;28;20194;-86
2021/08/11 11:40:09;;;;;;;13.55;9.85;;;26.90;99.90;;;;;;5061752;28;20866;-81
2021/08/11 11:42:36;;;;;;;16.55;10.70;;;27.00;99.90;;;;;;5069783;28;20204;-86
2021/08/11 11:45:05;;;;;;;12.75;8.15;;;27.10;99.90;;;;;;5063577;28;20279;-84
2021/08/11 11:48:10;;;;;;;11.30;8.30;;;27.20;99.90;;;;;;5048774;28;20206;-84
2021/08/11 11:50:47;;;;;;;12.27;9.00;;;27.20;99.90;;;;;;5049468;28;20202;-84
2021/08/11 11:53:33;;;;;;;17.35;11.43;;;27.10;99.90;;;;;;5048686;28;20198;-84
2021/08/11 11:56:10;;;;;;;14.15;9.32;;;27.20;99.90;;;;;;5065160;28;20255;-81
2021/08/11 11:58:46;;;;;;;18.10;8.45;;;27.10;99.90;;;;;;5064166;28;20280;-80
2021/08/11 12:01:13;;;;;;;22.20;9.65;;;27.20;99.90;;;;;;5064168;28;20192;-78
2021/08/11 12:03:41;;;;;;;13.75;8.75;;;27.20;99.90;;;;;;5064734;28;20278;-83
2021/08/11 12:06:09;;;;;;;15.85;8.80;;;27.00;99.90;;;;;;5050786;28;20236;-80
2021/08/11 12:08:37;;;;;;;14.85;8.35;;;27.00;99.90;;;;;;5043781;28;20197;-80
2021/08/11 12:11:08;;;;;;;13.93;7.85;;;27.00;99.90;;;;;;5043982;28;20241;-81
2021/08/11 12:13:43;;;;;;;13.73;7.50;;;26.80;99.90;;;;;;5044377;28;20256;-77
2021/08/11 12:16:12;;;;;;;9.77;7.82;;;26.80;99.90;;;;;;5043159;28;20207;-79
2021/08/11 12:18:41;;;;;;;11.32;7.65;;;26.80;99.90;;;;;;5043919;28;20221;-78
2021/08/11 12:21:07;;;;;;;12.00;7.30;;;26.80;99.90;;;;;;5053625;28;20814;-78
2021/08/11 12:23:34;;;;;;;10.32;7.25;;;27.00;99.90;;;;;;5055031;28;20224;-79
2021/08/11 12:26:03;;;;;;;11.45;7.18;;;27.00;99.90;;;;;;5062481;28;20663;-79
2021/08/11 12:28:34;;;;;;;13.60;7.18;;;27.00;99.90;;;;;;5057936;28;20218;-79
2021/08/11 12:31:04;;;;;;;11.90;6.85;;;27.10;99.90;;;;;;5043660;28;20206;-78
2021/08/11 12:33:33;;;;;;;11.40;7.60;;;27.20;99.90;;;;;;5044032;28;20206;-79
2021/08/11 12:36:01;;;;;;;14.82;6.47;;;27.20;99.90;;;;;;5043177;28;20321;-78
2021/08/11 12:38:33;;;;;;;14.32;7.38;;;27.20;99.90;;;;;;5043964;28;20217;-80
2021/08/11 12:41:16;;;;;;;9.38;6.35;;;27.20;99.90;;;;;;5043369;28;20206;-79
2021/08/11 12:43:44;;;;;;;9.85;6.10;;;27.30;99.90;;;;;;5045987;28;20291;-79
2021/08/11 12:46:11;;;;;;;11.95;7.80;;;27.30;99.90;;;;;;5045947;28;20265;-79
2021/08/11 12:48:39;;;;;;;11.82;7.60;;;27.00;99.90;;;;;;5047388;28;20337;-79